createdAt,value
2018-05-06T00:00:21.250Z,1018.64
2018-05-06T00:01:21.235Z,1018.65
2018-05-06T00:02:21.223Z,1018.68
2018-05-06T00:03:21.210Z,1018.64
2018-05-06T00:04:21.200Z,1018.62
2018-05-06T00:05:21.182Z,1018.62
2018-05-06T00:06:21.166Z,1018.62
2018-05-06T00:07:21.160Z,1018.60
2018-05-06T00:08:21.141Z,1018.63
2018-05-06T00:09:21.124Z,1018.60
2018-05-06T00:10:21.110Z,1018.62
2018-05-06T00:11:21.105Z,1018.62
2018-05-06T00:12:21.081Z,1018.60
2018-05-06T00:13:21.073Z,1018.62
2018-05-06T00:14:21.056Z,1018.64
2018-05-06T00:15:21.054Z,1018.66
2018-05-06T00:16:21.029Z,1018.64
2018-05-06T00:17:21.014Z,1018.68
2018-05-06T00:18:20.994Z,1018.65
2018-05-06T00:19:20.990Z,1018.67
2018-05-06T00:20:20.971Z,1018.66
2018-05-06T00:21:20.959Z,1018.64
2018-05-06T00:22:20.940Z,1018.66
2018-05-06T00:23:20.934Z,1018.66
2018-05-06T00:24:20.920Z,1018.64
2018-05-06T00:25:20.903Z,1018.62
2018-05-06T00:26:20.882Z,1018.63
2018-05-06T00:27:20.869Z,1018.59
2018-05-06T00:28:20.860Z,1018.55
2018-05-06T00:29:20.840Z,1018.59
2018-05-06T00:30:20.830Z,1018.58
2018-05-06T00:31:20.812Z,1018.59
2018-05-06T00:32:20.803Z,1018.62
2018-05-06T00:33:20.802Z,1018.62
2018-05-06T00:34:20.769Z,1018.63
2018-05-06T00:35:20.759Z,1018.63
2018-05-06T00:36:20.745Z,1018.64
2018-05-06T00:37:20.725Z,1018.66
2018-05-06T00:38:20.713Z,1018.64
2018-05-06T00:39:20.699Z,1018.65
2018-05-06T00:40:20.687Z,1018.63
2018-05-06T00:41:20.680Z,1018.64
2018-05-06T00:42:20.655Z,1018.59
2018-05-06T00:43:20.642Z,1018.59
2018-05-06T00:44:20.626Z,1018.58
2018-05-06T00:45:20.610Z,1018.56
2018-05-06T00:46:20.606Z,1018.54
2018-05-06T00:47:20.587Z,1018.52
2018-05-06T00:48:20.580Z,1018.53
2018-05-06T00:49:20.556Z,1018.50
2018-05-06T00:50:20.538Z,1018.52
2018-05-06T00:51:20.524Z,1018.47
2018-05-06T00:52:20.516Z,1018.52
2018-05-06T00:53:20.498Z,1018.49
2018-05-06T00:54:20.491Z,1018.46
2018-05-06T00:55:20.470Z,1018.48
2018-05-06T00:56:20.454Z,1018.47
2018-05-06T00:57:20.441Z,1018.47
2018-05-06T00:58:20.431Z,1018.46
2018-05-06T00:59:20.410Z,1018.43
2018-05-06T01:00:20.399Z,1018.45
2018-05-06T01:01:20.390Z,1018.49
2018-05-06T01:02:20.367Z,1018.48
2018-05-06T01:03:20.364Z,1018.47
2018-05-06T01:04:20.340Z,1018.46
2018-05-06T01:05:20.337Z,1018.49
2018-05-06T01:06:20.311Z,1018.48
2018-05-06T01:07:20.298Z,1018.49
2018-05-06T01:08:20.279Z,1018.49
2018-05-06T01:09:20.265Z,1018.55
2018-05-06T01:10:20.256Z,1018.49
2018-05-06T01:11:20.240Z,1018.49
2018-05-06T01:12:20.225Z,1018.52
2018-05-06T01:13:20.207Z,1018.49
2018-05-06T01:14:20.196Z,1018.50
2018-05-06T01:15:20.179Z,1018.51
2018-05-06T01:16:20.174Z,1018.54
2018-05-06T01:17:20.149Z,1018.52
2018-05-06T01:18:20.141Z,1018.57
2018-05-06T01:19:20.119Z,1018.53
2018-05-06T01:20:20.109Z,1018.58
2018-05-06T01:21:20.095Z,1018.57
2018-05-06T01:22:20.077Z,1018.55
2018-05-06T01:23:20.063Z,1018.55
2018-05-06T01:24:20.048Z,1018.56
2018-05-06T01:25:20.034Z,1018.53
2018-05-06T01:26:20.020Z,1018.55
2018-05-06T01:27:20.007Z,1018.49
2018-05-06T01:28:19.988Z,1018.49
2018-05-06T01:29:19.975Z,1018.47
2018-05-06T01:30:19.959Z,1018.50
2018-05-06T01:31:19.946Z,1018.45
2018-05-06T01:32:19.930Z,1018.49
2018-05-06T01:33:19.918Z,1018.48
2018-05-06T01:34:19.904Z,1018.44
2018-05-06T01:35:19.897Z,1018.46
2018-05-06T01:36:19.870Z,1018.46
2018-05-06T01:37:19.854Z,1018.45
2018-05-06T01:38:19.843Z,1018.47
2018-05-06T01:39:19.833Z,1018.45
2018-05-06T01:40:19.811Z,1018.43
2018-05-06T01:41:19.797Z,1018.46
2018-05-06T01:42:19.788Z,1018.40
2018-05-06T01:43:19.768Z,1018.41
2018-05-06T01:44:19.756Z,1018.40
2018-05-06T01:45:19.738Z,1018.38
2018-05-06T01:46:19.731Z,1018.38
2018-05-06T01:47:19.711Z,1018.37
2018-05-06T01:48:19.694Z,1018.35
2018-05-06T01:49:19.679Z,1018.33
2018-05-06T01:50:19.672Z,1018.32
2018-05-06T01:51:19.651Z,1018.27
2018-05-06T01:52:19.636Z,1018.29
2018-05-06T01:53:19.623Z,1018.32
2018-05-06T01:54:19.606Z,1018.29
2018-05-06T01:55:19.603Z,1018.27
2018-05-06T01:56:19.579Z,1018.28
2018-05-06T01:57:19.560Z,1018.30
2018-05-06T01:58:19.547Z,1018.30
2018-05-06T01:59:19.531Z,1018.31
2018-05-06T02:00:19.525Z,1018.31
2018-05-06T02:01:19.502Z,1018.32
2018-05-06T02:02:19.490Z,1018.32
2018-05-06T02:03:19.473Z,1018.40
2018-05-06T02:04:19.460Z,1018.40
2018-05-06T02:05:19.441Z,1018.39
2018-05-06T02:06:19.432Z,1018.40
2018-05-06T02:07:19.410Z,1018.38
2018-05-06T02:08:19.397Z,1018.41
2018-05-06T02:09:19.382Z,1018.42
2018-05-06T02:10:19.371Z,1018.44
2018-05-06T02:11:19.348Z,1018.44
2018-05-06T02:12:19.341Z,1018.43
2018-05-06T02:13:19.323Z,1018.39
2018-05-06T02:14:19.316Z,1018.45
2018-05-06T02:15:19.291Z,1018.43
2018-05-06T02:16:19.279Z,1018.41
2018-05-06T02:17:19.260Z,1018.40
2018-05-06T02:18:19.302Z,1018.40
2018-05-06T02:19:19.229Z,1018.40
2018-05-06T02:20:19.263Z,1018.41
2018-05-06T02:21:19.198Z,1018.40
2018-05-06T02:22:19.191Z,1018.36
2018-05-06T02:23:19.171Z,1018.38
2018-05-06T02:24:19.210Z,1018.39
2018-05-06T02:25:19.150Z,1018.38
2018-05-06T02:26:19.136Z,1018.40
2018-05-06T02:27:19.113Z,1018.40
2018-05-06T02:28:19.099Z,1018.39
2018-05-06T02:29:19.081Z,1018.40
2018-05-06T02:30:19.067Z,1018.38
2018-05-06T02:31:19.050Z,1018.40
2018-05-06T02:32:19.043Z,1018.35
2018-05-06T02:33:19.026Z,1018.41
2018-05-06T02:34:19.011Z,1018.40
2018-05-06T02:35:18.996Z,1018.36
2018-05-06T02:36:18.980Z,1018.36
2018-05-06T02:37:18.957Z,1018.35
2018-05-06T02:38:18.953Z,1018.41
2018-05-06T02:39:18.930Z,1018.38
2018-05-06T02:40:18.925Z,1018.38
2018-05-06T02:41:18.897Z,1018.37
2018-05-06T02:42:18.887Z,1018.35
2018-05-06T02:43:18.868Z,1018.33
2018-05-06T02:44:18.861Z,1018.36
2018-05-06T02:45:18.835Z,1018.37
2018-05-06T02:46:18.821Z,1018.39
2018-05-06T02:47:18.808Z,1018.38
2018-05-06T02:48:18.795Z,1018.39
2018-05-06T02:49:18.778Z,1018.41
2018-05-06T02:50:18.759Z,1018.38
2018-05-06T02:51:18.753Z,1018.37
2018-05-06T02:52:18.738Z,1018.37
2018-05-06T02:53:18.713Z,1018.38
2018-05-06T02:54:18.703Z,1018.37
2018-05-06T02:55:18.696Z,1018.36
2018-05-06T02:56:18.669Z,1018.37
2018-05-06T02:57:18.669Z,1018.40
2018-05-06T02:58:18.635Z,1018.39
2018-05-06T02:59:18.626Z,1018.38
2018-05-06T03:00:18.609Z,1018.41
2018-05-06T03:01:18.590Z,1018.44
2018-05-06T03:02:18.591Z,1018.42
2018-05-06T03:03:18.561Z,1018.40
2018-05-06T03:04:18.551Z,1018.44
2018-05-06T03:05:18.531Z,1018.42
2018-05-06T03:06:18.520Z,1018.43
2018-05-06T03:07:18.501Z,1018.41
2018-05-06T03:08:18.483Z,1018.39
2018-05-06T03:09:18.471Z,1018.39
2018-05-06T03:10:18.455Z,1018.37
2018-05-06T03:11:18.441Z,1018.36
2018-05-06T03:12:18.424Z,1018.35
2018-05-06T03:13:18.411Z,1018.34
2018-05-06T03:14:18.392Z,1018.33
2018-05-06T03:15:18.383Z,1018.32
2018-05-06T03:16:18.361Z,1018.30
2018-05-06T03:17:18.345Z,1018.31
2018-05-06T03:18:18.330Z,1018.31
2018-05-06T03:19:18.314Z,1018.26
2018-05-06T03:20:18.302Z,1018.24
2018-05-06T03:21:18.289Z,1018.23
2018-05-06T03:22:18.270Z,1018.23
2018-05-06T03:23:18.259Z,1018.17
2018-05-06T03:24:18.242Z,1018.20
2018-05-06T03:25:18.219Z,1018.23
2018-05-06T03:26:18.211Z,1018.23
2018-05-06T03:27:18.189Z,1018.22
2018-05-06T03:28:18.180Z,1018.20
2018-05-06T03:29:18.164Z,1018.20
2018-05-06T03:30:18.152Z,1018.22
2018-05-06T03:31:18.140Z,1018.20
2018-05-06T03:32:18.112Z,1018.24
2018-05-06T03:33:18.104Z,1018.22
2018-05-06T03:34:18.089Z,1018.19
2018-05-06T03:35:18.064Z,1018.19
2018-05-06T03:36:18.050Z,1018.25
2018-05-06T03:37:18.039Z,1018.23
2018-05-06T03:38:18.020Z,1018.24
2018-05-06T03:40:17.986Z,1018.18
2018-05-06T03:41:17.970Z,1018.21
2018-05-06T03:43:17.944Z,1018.16
2018-05-06T03:44:17.930Z,1018.20
2018-05-06T03:45:17.910Z,1018.17
2018-05-06T03:46:17.897Z,1018.17
2018-05-06T03:47:17.880Z,1018.15
2018-05-06T03:48:17.869Z,1018.12
2018-05-06T03:49:17.851Z,1018.12
2018-05-06T03:50:17.840Z,1018.17
2018-05-06T03:51:17.820Z,1018.15
2018-05-06T03:52:17.810Z,1018.14
2018-05-06T03:53:17.788Z,1018.06
2018-05-06T03:54:17.777Z,1018.08
2018-05-06T03:55:17.757Z,1018.05
2018-05-06T03:56:17.739Z,1018.09
2018-05-06T03:57:17.725Z,1018.09
2018-05-06T03:58:17.718Z,1018.07
2018-05-06T03:59:17.741Z,1018.08
2018-05-06T04:00:17.685Z,1018.08
2018-05-06T04:01:17.823Z,1018.05
2018-05-06T04:02:17.643Z,1018.07
2018-05-06T04:03:17.627Z,1018.07
2018-05-06T04:04:17.617Z,1018.09
2018-05-06T04:05:17.700Z,1018.05
2018-05-06T04:06:17.586Z,1018.05
2018-05-06T04:07:17.568Z,1018.06
2018-05-06T04:08:17.548Z,1018.00
2018-05-06T04:09:17.537Z,1018.05
2018-05-06T04:10:17.520Z,1018.05
2018-05-06T04:11:17.508Z,1018.03
2018-05-06T04:12:17.484Z,1018.01
2018-05-06T04:13:17.533Z,1018.05
2018-05-06T04:14:17.452Z,1018.07
2018-05-06T04:15:17.506Z,1018.06
2018-05-06T04:16:17.421Z,1018.06
2018-05-06T04:17:17.407Z,1018.05
2018-05-06T04:18:17.392Z,1018.06
2018-05-06T04:19:17.477Z,1018.03
2018-05-06T04:20:17.369Z,1018.05
2018-05-06T04:21:17.366Z,1018.10
2018-05-06T04:22:17.331Z,1018.10
2018-05-06T04:23:17.315Z,1018.10
2018-05-06T04:24:17.296Z,1018.08
2018-05-06T04:25:17.280Z,1018.12
2018-05-06T04:26:17.266Z,1018.11
2018-05-06T04:27:17.251Z,1018.12
2018-05-06T04:28:17.241Z,1018.11
2018-05-06T04:29:17.321Z,1018.20
2018-05-06T04:30:17.206Z,1018.15
2018-05-06T04:31:17.246Z,1018.14
2018-05-06T04:32:17.175Z,1018.14
2018-05-06T04:33:17.161Z,1018.16
2018-05-06T04:34:17.141Z,1018.14
2018-05-06T04:35:17.130Z,1018.14
2018-05-06T04:36:17.120Z,1018.13
2018-05-06T04:37:17.091Z,1018.17
2018-05-06T04:38:17.076Z,1018.17
2018-05-06T04:39:17.062Z,1018.20
2018-05-06T04:40:17.052Z,1018.21
2018-05-06T04:41:17.030Z,1018.19
2018-05-06T04:42:17.018Z,1018.18
2018-05-06T04:43:17.018Z,1018.19
2018-05-06T04:44:17.056Z,1018.22
2018-05-06T04:45:16.965Z,1018.22
2018-05-06T04:47:16.941Z,1018.19
2018-05-06T04:48:16.920Z,1018.17
2018-05-06T04:49:16.906Z,1018.19
2018-05-06T04:50:16.889Z,1018.18
2018-05-06T04:51:16.880Z,1018.21
2018-05-06T04:52:16.859Z,1018.21
2018-05-06T04:53:16.839Z,1018.21
2018-05-06T04:54:16.833Z,1018.22
2018-05-06T04:58:16.769Z,1018.28
2018-05-06T04:59:16.749Z,1018.26
2018-05-06T05:00:16.731Z,1018.27
2018-05-06T05:01:16.722Z,1018.29
2018-05-06T05:02:16.703Z,1018.26
2018-05-06T05:03:16.693Z,1018.28
2018-05-06T05:04:16.671Z,1018.30
2018-05-06T05:05:16.652Z,1018.29
2018-05-06T05:06:16.645Z,1018.26
2018-05-06T05:07:16.625Z,1018.28
2018-05-06T05:08:16.612Z,1018.30
2018-05-06T05:09:16.595Z,1018.28
2018-05-06T05:10:16.583Z,1018.29
2018-05-06T05:11:16.563Z,1018.32
2018-05-06T05:12:16.546Z,1018.30
2018-05-06T05:13:16.526Z,1018.30
2018-05-06T05:14:16.509Z,1018.35
2018-05-06T05:15:16.499Z,1018.34
2018-05-06T05:16:16.482Z,1018.34
2018-05-06T05:17:16.473Z,1018.38
2018-05-06T05:18:16.450Z,1018.39
2018-05-06T05:19:16.443Z,1018.36
2018-05-06T05:20:16.423Z,1018.39
2018-05-06T05:21:16.406Z,1018.37
2018-05-06T05:22:16.410Z,1018.37
2018-05-06T05:23:16.374Z,1018.34
2018-05-06T05:24:16.357Z,1018.41
2018-05-06T05:25:16.340Z,1018.43
2018-05-06T05:26:16.329Z,1018.42
2018-05-06T05:27:16.310Z,1018.43
2018-05-06T05:28:16.296Z,1018.43
2018-05-06T05:29:16.279Z,1018.43
2018-05-06T05:30:16.266Z,1018.44
2018-05-06T05:31:16.249Z,1018.49
2018-05-06T05:32:16.235Z,1018.47
2018-05-06T05:33:16.221Z,1018.44
2018-05-06T05:34:16.204Z,1018.45
2018-05-06T05:35:16.187Z,1018.47
2018-05-06T05:36:16.179Z,1018.47
2018-05-06T05:37:16.158Z,1018.44
2018-05-06T05:38:16.141Z,1018.48
2018-05-06T05:39:16.132Z,1018.46
2018-05-06T05:40:16.111Z,1018.51
2018-05-06T05:41:16.100Z,1018.45
2018-05-06T05:42:16.081Z,1018.55
2018-05-06T05:43:16.072Z,1018.51
2018-05-06T05:44:16.049Z,1018.54
2018-05-06T05:45:16.042Z,1018.54
2018-05-06T05:46:16.020Z,1018.57
2018-05-06T05:48:15.990Z,1018.60
2018-05-06T05:49:15.974Z,1018.67
2018-05-06T05:50:15.963Z,1018.60
2018-05-06T05:51:15.945Z,1018.68
2018-05-06T05:52:15.931Z,1018.68
2018-05-06T05:53:15.922Z,1018.69
2018-05-06T05:54:15.905Z,1018.70
2018-05-06T05:55:15.892Z,1018.71
2018-05-06T05:56:15.897Z,1018.72
2018-05-06T05:57:15.860Z,1018.76
2018-05-06T05:59:15.835Z,1018.75
2018-05-06T06:00:15.831Z,1018.72
2018-05-06T06:01:15.800Z,1018.79
2018-05-06T06:02:15.791Z,1018.76
2018-05-06T06:03:15.763Z,1018.75
2018-05-06T06:04:15.750Z,1018.77
2018-05-06T06:05:15.739Z,1018.79
2018-05-06T06:06:15.813Z,1018.79
2018-05-06T06:07:15.712Z,1018.79
2018-05-06T06:08:15.844Z,1018.83
2018-05-06T06:09:15.680Z,1018.83
2018-05-06T06:10:15.672Z,1018.87
2018-05-06T06:11:15.648Z,1018.85
2018-05-06T06:12:15.733Z,1018.84
2018-05-06T06:14:15.701Z,1018.89
2018-05-06T06:15:15.591Z,1018.89
2018-05-06T06:16:15.585Z,1018.86
2018-05-06T06:17:15.560Z,1018.86
2018-05-06T06:18:15.544Z,1018.88
2018-05-06T06:19:15.552Z,1018.90
2018-05-06T06:20:15.518Z,1018.92
2018-05-06T06:21:15.505Z,1018.93
2018-05-06T06:22:15.486Z,1018.89
2018-05-06T06:23:15.474Z,1018.91
2018-05-06T06:24:15.462Z,1018.94
2018-05-06T06:25:15.441Z,1018.95
2018-05-06T06:26:15.429Z,1018.95
2018-05-06T06:27:15.411Z,1018.92
2018-05-06T06:28:15.395Z,1018.91
2018-05-06T06:29:15.381Z,1018.93
2018-05-06T06:30:15.369Z,1018.92
2018-05-06T06:31:15.357Z,1018.97
2018-05-06T06:32:15.338Z,1019.00
2018-05-06T06:33:15.325Z,1018.94
2018-05-06T06:34:15.309Z,1018.97
2018-05-06T06:35:15.298Z,1018.99
2018-05-06T06:36:15.281Z,1019.02
2018-05-06T06:37:15.270Z,1018.97
2018-05-06T06:38:15.322Z,1019.01
2018-05-06T06:39:15.239Z,1019.00
2018-05-06T06:40:15.223Z,1018.98
2018-05-06T06:41:15.207Z,1018.97
2018-05-06T06:42:15.196Z,1018.97
2018-05-06T06:43:15.180Z,1018.95
2018-05-06T06:44:15.173Z,1018.96
2018-05-06T06:45:15.153Z,1018.89
2018-05-06T06:46:15.140Z,1018.92
2018-05-06T06:47:15.131Z,1018.95
2018-05-06T06:48:15.110Z,1018.90
2018-05-06T06:49:15.099Z,1018.89
2018-05-06T06:50:15.080Z,1018.84
2018-05-06T06:51:15.071Z,1018.86
2018-05-06T06:52:15.059Z,1018.89
2018-05-06T06:53:15.042Z,1018.88
2018-05-06T06:54:15.028Z,1018.84
2018-05-06T06:55:15.012Z,1018.87
2018-05-06T06:56:15.001Z,1018.88
2018-05-06T06:57:14.989Z,1018.91
2018-05-06T06:58:14.973Z,1018.89
2018-05-06T06:59:14.959Z,1018.86
2018-05-06T07:00:14.950Z,1018.88
2018-05-06T07:01:14.933Z,1018.90
2018-05-06T07:02:14.919Z,1018.91
2018-05-06T07:03:14.912Z,1018.89
2018-05-06T07:04:14.902Z,1018.88
2018-05-06T07:06:14.865Z,1018.96
2018-05-06T07:07:14.857Z,1018.95
2018-05-06T07:08:14.836Z,1018.94
2018-05-06T07:09:14.823Z,1018.99
2018-05-06T07:10:14.811Z,1019.04
2018-05-06T07:11:14.837Z,1019.01
2018-05-06T07:12:14.785Z,1019.08
2018-05-06T07:13:14.773Z,1019.03
2018-05-06T07:14:14.759Z,1019.04
2018-05-06T07:15:14.743Z,1019.06
2018-05-06T07:16:14.731Z,1019.10
2018-05-06T07:17:14.737Z,1019.12
2018-05-06T07:18:14.704Z,1019.05
2018-05-06T07:19:14.725Z,1019.06
2018-05-06T07:20:14.682Z,1019.05
2018-05-06T07:21:14.670Z,1019.04
2018-05-06T07:22:14.653Z,1019.07
2018-05-06T07:23:14.645Z,1019.07
2018-05-06T07:24:14.637Z,1019.07
2018-05-06T07:25:14.618Z,1019.08
2018-05-06T07:26:14.603Z,1019.05
2018-05-06T07:27:14.598Z,1019.08
2018-05-06T07:28:14.578Z,1019.08
2018-05-06T07:29:14.560Z,1019.08
2018-05-06T07:30:14.553Z,1019.10
2018-05-06T07:31:14.541Z,1019.11
2018-05-06T07:33:14.511Z,1019.15
2018-05-06T07:34:14.497Z,1019.21
2018-05-06T07:35:14.487Z,1019.20
2018-05-06T07:36:14.472Z,1019.21
2018-05-06T07:38:14.451Z,1019.27
2018-05-06T07:39:14.441Z,1019.32
2018-05-06T07:40:14.425Z,1019.44
2018-05-06T07:41:14.523Z,1019.62
2018-05-06T07:42:14.407Z,1019.77
2018-05-06T07:43:14.401Z,1019.90
2018-05-06T07:44:14.395Z,1020.07
2018-05-06T07:45:14.430Z,1020.14
2018-05-06T07:46:14.378Z,1020.13
2018-05-06T07:47:14.420Z,1020.17
2018-05-06T07:48:14.361Z,1020.18
2018-05-06T07:49:14.354Z,1020.21
2018-05-06T07:50:14.347Z,1020.20
2018-05-06T07:51:14.389Z,1020.22
2018-05-06T07:52:14.336Z,1020.22
2018-05-06T07:53:14.342Z,1020.19
2018-05-06T07:54:14.333Z,1020.19
2018-05-06T07:55:14.321Z,1020.11
2018-05-06T07:56:14.324Z,1020.14
2018-05-06T07:57:14.316Z,1020.17
2018-05-06T07:58:14.327Z,1020.14
2018-05-06T07:59:14.312Z,1020.12
2018-05-06T08:00:14.304Z,1020.14
2018-05-06T08:01:14.303Z,1020.12
2018-05-06T08:02:14.347Z,1020.13
2018-05-06T08:03:14.299Z,1020.16
2018-05-06T08:04:14.301Z,1020.15
2018-05-06T08:05:14.302Z,1020.18
2018-05-06T08:06:14.296Z,1020.19
2018-05-06T08:08:14.308Z,1020.27
2018-05-06T08:09:14.308Z,1020.25
2018-05-06T08:10:14.309Z,1020.32
2018-05-06T08:11:14.303Z,1020.34
2018-05-06T08:12:14.375Z,1020.31
2018-05-06T08:13:14.303Z,1020.36
2018-05-06T08:14:14.310Z,1020.42
2018-05-06T08:15:14.310Z,1020.46
2018-05-06T08:16:14.406Z,1020.41
2018-05-06T08:17:14.320Z,1020.49
2018-05-06T08:18:14.321Z,1020.45
2018-05-06T08:19:14.320Z,1020.45
2018-05-06T08:20:14.321Z,1020.52
2018-05-06T08:21:14.322Z,1020.49
2018-05-06T08:22:14.333Z,1020.46
2018-05-06T08:23:14.359Z,1020.47
2018-05-06T08:24:14.342Z,1020.51
2018-05-06T08:25:14.344Z,1020.51
2018-05-06T08:26:14.344Z,1020.49
2018-05-06T08:27:14.348Z,1020.51
2018-05-06T08:28:14.353Z,1020.56
2018-05-06T08:29:14.362Z,1020.56
2018-05-06T08:30:14.372Z,1020.44
2018-05-06T08:31:14.408Z,1020.44
2018-05-06T08:32:14.367Z,1020.49
2018-05-06T08:33:14.522Z,1020.52
2018-05-06T08:34:14.446Z,1020.57
2018-05-06T08:35:14.384Z,1020.59
2018-05-06T08:36:14.391Z,1020.58
2018-05-06T08:37:14.394Z,1020.60
2018-05-06T08:39:14.399Z,1020.52
2018-05-06T08:40:14.415Z,1020.30
2018-05-06T08:41:14.411Z,1020.30
2018-05-06T08:42:14.421Z,1020.41
2018-05-06T08:43:14.422Z,1020.45
2018-05-06T08:44:14.441Z,1020.43
2018-05-06T08:45:14.430Z,1020.43
2018-05-06T08:46:14.440Z,1020.39
2018-05-06T08:47:14.444Z,1020.38
2018-05-06T08:48:14.464Z,1020.25
2018-05-06T08:49:14.451Z,1020.25
2018-05-06T08:50:14.466Z,1020.29
2018-05-06T08:51:14.467Z,1020.23
2018-05-06T08:52:14.473Z,1020.20
2018-05-06T08:53:14.479Z,1020.25
2018-05-06T08:54:14.494Z,1020.37
2018-05-06T08:55:14.490Z,1020.33
2018-05-06T08:56:14.498Z,1020.19
2018-05-06T08:57:14.498Z,1020.12
2018-05-06T08:58:14.501Z,1020.17
2018-05-06T08:59:14.505Z,1020.14
2018-05-06T09:00:14.513Z,1020.10
2018-05-06T09:01:14.512Z,1020.05
2018-05-06T09:02:14.522Z,1020.07
2018-05-06T09:03:14.524Z,1020.00
2018-05-06T09:04:14.525Z,1019.99
2018-05-06T09:05:14.533Z,1019.98
2018-05-06T09:06:14.538Z,1020.04
2018-05-06T09:07:14.538Z,1019.95
2018-05-06T09:08:14.537Z,1019.89
2018-05-06T09:09:14.538Z,1019.93
2018-05-06T09:10:14.552Z,1019.91
2018-05-06T09:11:14.642Z,1019.97
2018-05-06T09:12:14.562Z,1019.88
2018-05-06T09:13:14.671Z,1019.86
2018-05-06T09:14:14.552Z,1019.93
2018-05-06T09:15:14.563Z,1019.93
2018-05-06T09:16:14.551Z,1019.89
2018-05-06T09:17:14.556Z,1019.83
2018-05-06T09:18:14.560Z,1019.82
2018-05-06T09:19:14.556Z,1019.74
2018-05-06T09:20:14.559Z,1019.78
2018-05-06T09:21:14.559Z,1019.71
2018-05-06T09:22:14.558Z,1019.69
2018-05-06T09:23:14.627Z,1019.69
2018-05-06T09:24:14.563Z,1019.69
2018-05-06T09:25:14.559Z,1019.59
2018-05-06T09:26:14.557Z,1019.59
2018-05-06T09:27:14.558Z,1019.64
2018-05-06T09:28:14.556Z,1019.61
2018-05-06T09:29:14.562Z,1019.59
2018-05-06T09:30:14.563Z,1019.64
2018-05-06T09:31:14.559Z,1019.56
2018-05-06T09:32:14.598Z,1019.38
2018-05-06T09:33:14.562Z,1019.28
2018-05-06T09:34:14.552Z,1019.31
2018-05-06T09:35:14.562Z,1019.31
2018-05-06T09:37:14.552Z,1019.30
2018-05-06T09:38:14.551Z,1019.26
2018-05-06T09:39:14.545Z,1019.29
2018-05-06T09:40:14.544Z,1019.34
2018-05-06T09:41:14.542Z,1019.24
2018-05-06T09:42:14.540Z,1019.34
2018-05-06T09:43:14.539Z,1019.30
2018-05-06T09:44:14.542Z,1019.30
2018-05-06T09:45:14.536Z,1019.29
2018-05-06T09:46:14.533Z,1019.28
2018-05-06T09:47:14.533Z,1019.26
2018-05-06T09:48:14.530Z,1019.23
2018-05-06T09:49:14.527Z,1019.23
2018-05-06T09:50:14.521Z,1019.20
2018-05-06T09:51:14.522Z,1019.21
2018-05-06T09:52:14.524Z,1019.21
2018-05-06T09:53:14.513Z,1019.16
2018-05-06T09:54:14.516Z,1019.16
2018-05-06T09:55:14.515Z,1019.24
2018-05-06T09:56:14.506Z,1019.19
2018-05-06T09:57:14.507Z,1019.19
2018-05-06T09:58:14.513Z,1019.17
2018-05-06T09:59:14.508Z,1019.18
2018-05-06T10:00:14.493Z,1019.16
2018-05-06T10:02:14.485Z,1019.15
2018-05-06T10:03:14.483Z,1019.14
2018-05-06T10:04:14.481Z,1019.15
2018-05-06T10:05:14.469Z,1019.09
2018-05-06T10:06:14.470Z,1019.08
2018-05-06T10:07:14.461Z,1019.09
2018-05-06T10:08:14.466Z,1019.09
2018-05-06T10:09:14.460Z,1019.08
2018-05-06T10:10:14.453Z,1019.06
2018-05-06T10:11:14.447Z,1019.07
2018-05-06T10:12:14.440Z,1019.05
2018-05-06T10:13:14.439Z,1019.09
2018-05-06T10:14:14.432Z,1019.04
2018-05-06T10:15:14.438Z,1019.05
2018-05-06T10:16:14.437Z,1019.07
2018-05-06T10:17:14.421Z,1019.04
2018-05-06T10:18:14.422Z,1019.07
2018-05-06T10:19:14.425Z,1019.04
2018-05-06T10:20:14.402Z,1019.08
2018-05-06T10:21:14.401Z,1019.06
2018-05-06T10:22:14.421Z,1018.98
2018-05-06T10:23:14.391Z,1019.05
2018-05-06T10:24:14.386Z,1019.03
2018-05-06T10:25:14.381Z,1019.03
2018-05-06T10:26:14.402Z,1019.05
2018-05-06T10:27:14.377Z,1018.98
2018-05-06T10:28:14.373Z,1018.97
2018-05-06T10:29:14.360Z,1018.97
2018-05-06T10:30:14.361Z,1018.95
2018-05-06T10:31:14.351Z,1019.00
2018-05-06T10:32:14.343Z,1018.98
2018-05-06T10:33:14.337Z,1018.94
2018-05-06T10:34:14.335Z,1018.93
2018-05-06T10:35:14.319Z,1018.93
2018-05-06T10:36:14.319Z,1018.89
2018-05-06T10:37:14.315Z,1018.87
2018-05-06T10:38:14.305Z,1018.87
2018-05-06T10:39:14.303Z,1018.83
2018-05-06T10:40:14.311Z,1018.86
2018-05-06T10:41:14.293Z,1018.80
2018-05-06T10:42:14.278Z,1018.81
2018-05-06T10:43:14.281Z,1018.83
2018-05-06T10:44:14.330Z,1018.79
2018-05-06T10:45:14.262Z,1018.78
2018-05-06T10:46:14.257Z,1018.82
2018-05-06T10:47:14.256Z,1018.81
2018-05-06T10:48:14.245Z,1018.76
2018-05-06T10:50:14.232Z,1018.71
2018-05-06T10:51:14.230Z,1018.67
2018-05-06T10:52:14.221Z,1018.64
2018-05-06T10:53:14.222Z,1018.66
2018-05-06T10:54:14.222Z,1018.62
2018-05-06T10:55:14.207Z,1018.71
2018-05-06T10:56:14.199Z,1018.63
2018-05-06T10:57:14.197Z,1018.65
2018-05-06T10:58:14.189Z,1018.65
2018-05-06T10:59:14.184Z,1018.62
2018-05-06T11:00:14.178Z,1018.62
2018-05-06T11:01:14.167Z,1018.65
2018-05-06T11:02:14.171Z,1018.60
2018-05-06T11:03:14.162Z,1018.59
2018-05-06T11:04:14.158Z,1018.51
2018-05-06T11:05:14.145Z,1018.51
2018-05-06T11:06:14.149Z,1018.55
2018-05-06T11:07:14.150Z,1018.52
2018-05-06T11:08:14.130Z,1018.48
2018-05-06T11:09:14.124Z,1018.50
2018-05-06T11:11:14.116Z,1018.45
2018-05-06T11:12:14.109Z,1018.47
2018-05-06T11:13:14.102Z,1018.48
2018-05-06T11:14:14.102Z,1018.44
2018-05-06T11:16:14.092Z,1018.43
2018-05-06T11:17:14.102Z,1018.41
2018-05-06T11:18:14.081Z,1018.39
2018-05-06T11:19:14.071Z,1018.40
2018-05-06T11:20:14.063Z,1018.41
2018-05-06T11:21:14.054Z,1018.40
2018-05-06T11:22:14.046Z,1018.42
2018-05-06T11:23:14.045Z,1018.39
2018-05-06T11:24:14.041Z,1018.36
2018-05-06T11:26:14.066Z,1018.39
2018-05-06T11:27:14.023Z,1018.40
2018-05-06T11:28:14.029Z,1018.38
2018-05-06T11:29:14.010Z,1018.35
2018-05-06T11:30:14.003Z,1018.34
2018-05-06T11:31:14.050Z,1018.37
2018-05-06T11:32:13.992Z,1018.34
2018-05-06T11:33:13.984Z,1018.33
2018-05-06T11:34:13.985Z,1018.37
2018-05-06T11:35:13.974Z,1018.32
2018-05-06T11:36:13.972Z,1018.28
2018-05-06T11:37:13.961Z,1018.30
2018-05-06T11:38:13.971Z,1018.29
2018-05-06T11:39:13.951Z,1018.27
2018-05-06T11:40:13.942Z,1018.26
2018-05-06T11:41:13.942Z,1018.21
2018-05-06T11:42:13.929Z,1018.22
2018-05-06T11:43:13.923Z,1018.19
2018-05-06T11:44:13.923Z,1018.23
2018-05-06T11:45:13.909Z,1018.25
2018-05-06T11:46:13.918Z,1018.19
2018-05-06T11:47:13.908Z,1018.24
2018-05-06T11:48:13.898Z,1018.18
2018-05-06T11:49:13.888Z,1018.28
2018-05-06T11:50:13.891Z,1018.25
2018-05-06T11:51:13.881Z,1018.21
2018-05-06T11:52:13.882Z,1018.22
2018-05-06T11:53:13.871Z,1018.23
2018-05-06T11:54:13.874Z,1018.27
2018-05-06T11:55:13.860Z,1018.28
2018-05-06T11:56:13.868Z,1018.26
2018-05-06T11:57:13.839Z,1018.27
2018-05-06T11:58:13.835Z,1018.27
2018-05-06T11:59:13.831Z,1018.19
2018-05-06T12:00:13.976Z,1018.26
2018-05-06T12:01:13.818Z,1018.23
2018-05-06T12:02:13.874Z,1018.23
2018-05-06T12:03:13.810Z,1018.22
2018-05-06T12:04:13.818Z,1018.25
2018-05-06T12:05:13.796Z,1018.24
2018-05-06T12:06:13.835Z,1018.20
2018-05-06T12:07:13.781Z,1018.16
2018-05-06T12:08:13.782Z,1018.14
2018-05-06T12:09:13.770Z,1018.14
2018-05-06T12:10:13.764Z,1018.17
2018-05-06T12:11:13.761Z,1018.09
2018-05-06T12:12:13.756Z,1018.12
2018-05-06T12:13:13.750Z,1018.13
2018-05-06T12:14:13.743Z,1018.10
2018-05-06T12:15:13.745Z,1018.03
2018-05-06T12:16:13.731Z,1018.03
2018-05-06T12:17:13.725Z,1017.96
2018-05-06T12:18:13.725Z,1018.01
2018-05-06T12:19:13.719Z,1017.96
2018-05-06T12:20:13.718Z,1017.97
2018-05-06T12:21:13.704Z,1018.01
2018-05-06T12:22:13.703Z,1017.96
2018-05-06T12:23:13.692Z,1017.93
2018-05-06T12:24:13.685Z,1017.94
2018-05-06T12:25:13.684Z,1017.96